Terminal Aerodrome Forecast
Issued by NWS Sterling, VA

Current Version | Previous Version | Text Only | Print | Product List | Glossary Off
Versions: 1 2 3 4 5 6 7 8 9 10 11 12 13 14 15 16 17 18 19 20 21 22 23

000
FTUS41 KLWX 261136
TAFIAD
TAF
KIAD 261136Z 2612/2718 02006KT 1SM -SN BR FEW006 OVC013
      TEMPO 2612/2614 1/2SM SN VV006
     FM261600 36010KT P6SM OVC015
     FM262200 VRB03KT P6SM -SN OVC020
     FM270900 34005KT P6SM -SN OVC040
     FM271500 34010G16KT P6SM BKN025=

USA.gov is the U.S. government's official web portal to all federal, state and local government web resources and services.